sensor_id;sensor_type;location;lat;lon;timestamp;temperature;humidity
30865;DHT22;17574;49.418;11.038;2022-07-22T00:02:21;19.80;28.70
30865;DHT22;17574;49.418;11.038;2022-07-22T00:04:48;19.80;29.10
30865;DHT22;17574;49.418;11.038;2022-07-22T00:07:15;19.80;29.10
30865;DHT22;17574;49.418;11.038;2022-07-22T00:09:42;19.70;26.90
30865;DHT22;17574;49.418;11.038;2022-07-22T00:12:09;19.70;26.60
30865;DHT22;17574;49.418;11.038;2022-07-22T00:14:35;19.70;26.60
30865;DHT22;17574;49.418;11.038;2022-07-22T00:17:02;19.70;27.20
30865;DHT22;17574;49.418;11.038;2022-07-22T00:19:28;19.70;28.80
30865;DHT22;17574;49.418;11.038;2022-07-22T00:21:55;19.70;27.30
30865;DHT22;17574;49.418;11.038;2022-07-22T00:24:22;19.60;27.70
30865;DHT22;17574;49.418;11.038;2022-07-22T00:26:48;19.60;27.70
30865;DHT22;17574;49.418;11.038;2022-07-22T00:29:15;19.60;29.10
30865;DHT22;17574;49.418;11.038;2022-07-22T00:31:42;19.50;29.20
30865;DHT22;17574;49.418;11.038;2022-07-22T00:34:08;19.50;28.10
30865;DHT22;17574;49.418;11.038;2022-07-22T00:36:35;19.50;28.20
30865;DHT22;17574;49.418;11.038;2022-07-22T00:39:02;19.50;29.30
30865;DHT22;17574;49.418;11.038;2022-07-22T00:41:29;19.40;29.30
30865;DHT22;17574;49.418;11.038;2022-07-22T00:46:29;19.40;29.60
30865;DHT22;17574;49.418;11.038;2022-07-22T00:48:57;19.40;29.80
30865;DHT22;17574;49.418;11.038;2022-07-22T00:51:26;19.30;31.00
30865;DHT22;17574;49.418;11.038;2022-07-22T00:53:53;19.30;31.00
30865;DHT22;17574;49.418;11.038;2022-07-22T00:56:20;19.30;32.50
30865;DHT22;17574;49.418;11.038;2022-07-22T00:58:48;19.30;33.10
30865;DHT22;17574;49.418;11.038;2022-07-22T01:01:15;19.20;36.00
30865;DHT22;17574;49.418;11.038;2022-07-22T01:03:42;19.20;36.60
30865;DHT22;17574;49.418;11.038;2022-07-22T01:06:15;19.20;33.50
30865;DHT22;17574;49.418;11.038;2022-07-22T01:08:41;19.10;33.70
30865;DHT22;17574;49.418;11.038;2022-07-22T01:11:12;19.10;34.70
30865;DHT22;17574;49.418;11.038;2022-07-22T01:13:40;19.00;33.90
30865;DHT22;17574;49.418;11.038;2022-07-22T01:16:07;19.00;34.90
30865;DHT22;17574;49.418;11.038;2022-07-22T01:18:34;19.10;36.60
30865;DHT22;17574;49.418;11.038;2022-07-22T01:21:01;19.00;37.40
30865;DHT22;17574;49.418;11.038;2022-07-22T01:23:28;19.00;36.50
30865;DHT22;17574;49.418;11.038;2022-07-22T01:25:54;18.90;36.40
30865;DHT22;17574;49.418;11.038;2022-07-22T01:28:21;18.90;37.60
30865;DHT22;17574;49.418;11.038;2022-07-22T01:30:48;18.80;39.90
30865;DHT22;17574;49.418;11.038;2022-07-22T01:33:16;18.90;40.70
30865;DHT22;17574;49.418;11.038;2022-07-22T01:35:43;18.90;40.30
30865;DHT22;17574;49.418;11.038;2022-07-22T01:38:10;18.80;39.70
30865;DHT22;17574;49.418;11.038;2022-07-22T01:40:38;18.80;39.20
30865;DHT22;17574;49.418;11.038;2022-07-22T01:43:05;18.70;39.20
30865;DHT22;17574;49.418;11.038;2022-07-22T01:45:32;18.70;40.20
30865;DHT22;17574;49.418;11.038;2022-07-22T01:47:58;18.70;41.70
30865;DHT22;17574;49.418;11.038;2022-07-22T01:50:25;18.70;41.90
30865;DHT22;17574;49.418;11.038;2022-07-22T01:52:52;18.60;42.00
30865;DHT22;17574;49.418;11.038;2022-07-22T01:55:18;18.60;43.50
30865;DHT22;17574;49.418;11.038;2022-07-22T01:57:45;18.60;44.50
30865;DHT22;17574;49.418;11.038;2022-07-22T02:00:12;18.60;43.80
30865;DHT22;17574;49.418;11.038;2022-07-22T02:02:38;18.50;42.80
30865;DHT22;17574;49.418;11.038;2022-07-22T02:05:05;18.50;43.40
30865;DHT22;17574;49.418;11.038;2022-07-22T02:07:32;18.50;43.90
30865;DHT22;17574;49.418;11.038;2022-07-22T02:09:59;18.50;43.70
30865;DHT22;17574;49.418;11.038;2022-07-22T02:12:26;18.40;44.10
30865;DHT22;17574;49.418;11.038;2022-07-22T02:14:53;18.40;47.10
30865;DHT22;17574;49.418;11.038;2022-07-22T02:17:20;18.40;46.20
30865;DHT22;17574;49.418;11.038;2022-07-22T02:19:46;18.40;47.00
30865;DHT22;17574;49.418;11.038;2022-07-22T02:22:13;18.30;47.10
30865;DHT22;17574;49.418;11.038;2022-07-22T02:24:40;18.30;47.10
30865;DHT22;17574;49.418;11.038;2022-07-22T02:27:06;18.30;46.90
30865;DHT22;17574;49.418;11.038;2022-07-22T02:29:33;18.30;44.80
30865;DHT22;17574;49.418;11.038;2022-07-22T02:32:00;18.30;45.60
30865;DHT22;17574;49.418;11.038;2022-07-22T02:34:26;18.20;44.70
30865;DHT22;17574;49.418;11.038;2022-07-22T02:36:53;18.20;47.00
30865;DHT22;17574;49.418;11.038;2022-07-22T02:39:20;18.20;47.60
30865;DHT22;17574;49.418;11.038;2022-07-22T02:41:47;18.10;46.90
30865;DHT22;17574;49.418;11.038;2022-07-22T02:44:13;18.10;48.50
30865;DHT22;17574;49.418;11.038;2022-07-22T02:46:40;18.20;48.70
30865;DHT22;17574;49.418;11.038;2022-07-22T02:49:07;18.10;49.20
30865;DHT22;17574;49.418;11.038;2022-07-22T02:51:33;18.10;50.10
30865;DHT22;17574;49.418;11.038;2022-07-22T02:54:00;18.00;50.40
30865;DHT22;17574;49.418;11.038;2022-07-22T02:56:26;18.00;50.70
30865;DHT22;17574;49.418;11.038;2022-07-22T02:58:53;18.00;50.70
30865;DHT22;17574;49.418;11.038;2022-07-22T03:01:21;17.90;50.70
30865;DHT22;17574;49.418;11.038;2022-07-22T03:03:48;17.90;51.30
30865;DHT22;17574;49.418;11.038;2022-07-22T03:06:15;17.80;50.80
30865;DHT22;17574;49.418;11.038;2022-07-22T03:08:41;17.80;51.10
30865;DHT22;17574;49.418;11.038;2022-07-22T03:11:08;17.80;51.00
30865;DHT22;17574;49.418;11.038;2022-07-22T03:13:34;17.80;51.40
30865;DHT22;17574;49.418;11.038;2022-07-22T03:16:01;17.80;51.70
30865;DHT22;17574;49.418;11.038;2022-07-22T03:18:28;17.70;51.90
30865;DHT22;17574;49.418;11.038;2022-07-22T03:20:55;17.70;51.30
30865;DHT22;17574;49.418;11.038;2022-07-22T03:23:21;17.70;52.00
30865;DHT22;17574;49.418;11.038;2022-07-22T03:25:48;17.70;53.30
30865;DHT22;17574;49.418;11.038;2022-07-22T03:28:14;17.70;54.00
30865;DHT22;17574;49.418;11.038;2022-07-22T03:30:41;17.70;53.60
30865;DHT22;17574;49.418;11.038;2022-07-22T03:33:08;17.70;53.20
30865;DHT22;17574;49.418;11.038;2022-07-22T03:35:35;17.60;54.10
30865;DHT22;17574;49.418;11.038;2022-07-22T03:38:01;17.60;53.90
30865;DHT22;17574;49.418;11.038;2022-07-22T03:40:28;17.60;54.30
30865;DHT22;17574;49.418;11.038;2022-07-22T03:42:55;17.60;55.20
30865;DHT22;17574;49.418;11.038;2022-07-22T03:45:21;17.60;57.20
30865;DHT22;17574;49.418;11.038;2022-07-22T03:47:48;17.60;57.20
30865;DHT22;17574;49.418;11.038;2022-07-22T03:50:15;17.60;55.50
30865;DHT22;17574;49.418;11.038;2022-07-22T03:52:41;17.60;55.60
30865;DHT22;17574;49.418;11.038;2022-07-22T03:55:08;17.60;56.00
30865;DHT22;17574;49.418;11.038;2022-07-22T03:57:35;17.60;54.70
30865;DHT22;17574;49.418;11.038;2022-07-22T04:00:02;17.60;54.80
30865;DHT22;17574;49.418;11.038;2022-07-22T04:02:29;17.60;56.10
30865;DHT22;17574;49.418;11.038;2022-07-22T04:04:56;17.60;54.60
30865;DHT22;17574;49.418;11.038;2022-07-22T04:07:22;17.60;57.20
30865;DHT22;17574;49.418;11.038;2022-07-22T04:09:49;17.70;56.70
30865;DHT22;17574;49.418;11.038;2022-07-22T04:12:16;17.40;55.40
30865;DHT22;17574;49.418;11.038;2022-07-22T04:14:42;17.60;55.40
30865;DHT22;17574;49.418;11.038;2022-07-22T04:17:09;17.60;55.30
30865;DHT22;17574;49.418;11.038;2022-07-22T04:19:41;17.70;54.80
30865;DHT22;17574;49.418;11.038;2022-07-22T04:22:08;17.70;53.90
30865;DHT22;17574;49.418;11.038;2022-07-22T04:24:34;17.80;53.40
30865;DHT22;17574;49.418;11.038;2022-07-22T04:27:01;17.70;53.30
30865;DHT22;17574;49.418;11.038;2022-07-22T04:29:28;17.80;54.00
30865;DHT22;17574;49.418;11.038;2022-07-22T04:31:54;17.80;54.10
30865;DHT22;17574;49.418;11.038;2022-07-22T04:34:28;17.80;53.20
30865;DHT22;17574;49.418;11.038;2022-07-22T04:36:54;17.90;52.30
30865;DHT22;17574;49.418;11.038;2022-07-22T04:39:21;17.90;52.10
30865;DHT22;17574;49.418;11.038;2022-07-22T04:41:47;17.90;52.00
30865;DHT22;17574;49.418;11.038;2022-07-22T04:44:14;18.00;50.70
30865;DHT22;17574;49.418;11.038;2022-07-22T04:46:41;18.00;50.30
30865;DHT22;17574;49.418;11.038;2022-07-22T04:49:07;18.10;50.20
30865;DHT22;17574;49.418;11.038;2022-07-22T04:51:34;18.10;50.60
30865;DHT22;17574;49.418;11.038;2022-07-22T04:54:00;18.10;50.60
30865;DHT22;17574;49.418;11.038;2022-07-22T04:56:27;18.20;50.50
30865;DHT22;17574;49.418;11.038;2022-07-22T04:58:54;18.30;50.00
30865;DHT22;17574;49.418;11.038;2022-07-22T05:01:21;18.30;48.10
30865;DHT22;17574;49.418;11.038;2022-07-22T05:03:48;18.50;47.30
30865;DHT22;17574;49.418;11.038;2022-07-22T05:06:15;18.60;47.40
30865;DHT22;17574;49.418;11.038;2022-07-22T05:08:41;18.60;48.40
30865;DHT22;17574;49.418;11.038;2022-07-22T05:11:08;18.60;47.60
30865;DHT22;17574;49.418;11.038;2022-07-22T05:13:35;18.70;50.20
30865;DHT22;17574;49.418;11.038;2022-07-22T05:16:02;18.80;49.50
30865;DHT22;17574;49.418;11.038;2022-07-22T05:18:30;19.00;47.80
30865;DHT22;17574;49.418;11.038;2022-07-22T05:20:56;19.60;40.50
30865;DHT22;17574;49.418;11.038;2022-07-22T05:23:23;19.90;33.70
30865;DHT22;17574;49.418;11.038;2022-07-22T05:25:49;20.30;29.20
30865;DHT22;17574;49.418;11.038;2022-07-22T05:28:16;20.60;27.30
30865;DHT22;17574;49.418;11.038;2022-07-22T05:30:43;20.80;26.10
30865;DHT22;17574;49.418;11.038;2022-07-22T05:33:10;21.00;24.20
30865;DHT22;17574;49.418;11.038;2022-07-22T05:35:36;20.90;26.30
30865;DHT22;17574;49.418;11.038;2022-07-22T05:38:03;20.60;27.30
30865;DHT22;17574;49.418;11.038;2022-07-22T05:40:30;20.50;27.20
30865;DHT22;17574;49.418;11.038;2022-07-22T05:42:56;20.50;29.40
30865;DHT22;17574;49.418;11.038;2022-07-22T05:45:23;20.50;29.80
30865;DHT22;17574;49.418;11.038;2022-07-22T05:47:50;20.60;30.70
30865;DHT22;17574;49.418;11.038;2022-07-22T05:50:16;20.70;28.90
30865;DHT22;17574;49.418;11.038;2022-07-22T05:52:43;20.80;29.20
30865;DHT22;17574;49.418;11.038;2022-07-22T05:55:09;21.00;29.10
30865;DHT22;17574;49.418;11.038;2022-07-22T05:57:36;21.10;27.70
30865;DHT22;17574;49.418;11.038;2022-07-22T06:00:03;21.30;26.00
30865;DHT22;17574;49.418;11.038;2022-07-22T06:02:31;21.60;23.40
30865;DHT22;17574;49.418;11.038;2022-07-22T06:04:57;21.70;23.50
30865;DHT22;17574;49.418;11.038;2022-07-22T06:07:28;22.00;20.70
30865;DHT22;17574;49.418;11.038;2022-07-22T06:09:56;22.30;19.70
30865;DHT22;17574;49.418;11.038;2022-07-22T06:12:22;22.50;17.60
30865;DHT22;17574;49.418;11.038;2022-07-22T06:14:49;22.60;16.10
30865;DHT22;17574;49.418;11.038;2022-07-22T06:17:16;23.00;16.40
30865;DHT22;17574;49.418;11.038;2022-07-22T06:19:42;23.20;11.30
30865;DHT22;17574;49.418;11.038;2022-07-22T06:22:09;23.40;10.30
30865;DHT22;17574;49.418;11.038;2022-07-22T06:24:36;23.70;9.70
30865;DHT22;17574;49.418;11.038;2022-07-22T06:27:03;23.90;8.00
30865;DHT22;17574;49.418;11.038;2022-07-22T06:29:30;24.10;6.40
30865;DHT22;17574;49.418;11.038;2022-07-22T06:31:57;24.40;3.60
30865;DHT22;17574;49.418;11.038;2022-07-22T06:34:24;24.60;2.30
30865;DHT22;17574;49.418;11.038;2022-07-22T06:36:51;24.80;1.20
30865;DHT22;17574;49.418;11.038;2022-07-22T06:39:17;25.00;1.00
30865;DHT22;17574;49.418;11.038;2022-07-22T06:41:44;25.20;1.00
30865;DHT22;17574;49.418;11.038;2022-07-22T06:44:11;25.60;1.00
30865;DHT22;17574;49.418;11.038;2022-07-22T06:46:37;25.90;1.00
30865;DHT22;17574;49.418;11.038;2022-07-22T06:49:06;26.20;1.00
30865;DHT22;17574;49.418;11.038;2022-07-22T06:51:38;26.50;1.00
30865;DHT22;17574;49.418;11.038;2022-07-22T06:54:04;26.60;1.00
30865;DHT22;17574;49.418;11.038;2022-07-22T06:56:31;26.60;1.00
30865;DHT22;17574;49.418;11.038;2022-07-22T06:58:57;26.90;1.00
30865;DHT22;17574;49.418;11.038;2022-07-22T07:01:25;27.20;1.00
30865;DHT22;17574;49.418;11.038;2022-07-22T07:03:52;27.40;1.00
30865;DHT22;17574;49.418;11.038;2022-07-22T07:06:18;27.80;1.00
30865;DHT22;17574;49.418;11.038;2022-07-22T07:08:45;28.20;1.00
30865;DHT22;17574;49.418;11.038;2022-07-22T07:11:12;28.70;1.00
30865;DHT22;17574;49.418;11.038;2022-07-22T07:13:39;29.00;1.00
30865;DHT22;17574;49.418;11.038;2022-07-22T07:16:05;29.40;1.00
30865;DHT22;17574;49.418;11.038;2022-07-22T07:18:32;29.70;1.00
30865;DHT22;17574;49.418;11.038;2022-07-22T07:20:59;30.10;1.00
30865;DHT22;17574;49.418;11.038;2022-07-22T07:23:25;30.50;1.00
30865;DHT22;17574;49.418;11.038;2022-07-22T07:25:52;30.80;1.00
30865;DHT22;17574;49.418;11.038;2022-07-22T07:28:19;31.00;1.00
30865;DHT22;17574;49.418;11.038;2022-07-22T07:30:46;31.20;1.00
30865;DHT22;17574;49.418;11.038;2022-07-22T07:33:13;31.30;1.00
30865;DHT22;17574;49.418;11.038;2022-07-22T07:35:40;31.40;1.00
30865;DHT22;17574;49.418;11.038;2022-07-22T07:38:06;31.30;1.00
30865;DHT22;17574;49.418;11.038;2022-07-22T07:40:33;30.90;1.00
30865;DHT22;17574;49.418;11.038;2022-07-22T07:43:00;30.60;1.00
30865;DHT22;17574;49.418;11.038;2022-07-22T07:45:29;30.10;1.00
30865;DHT22;17574;49.418;11.038;2022-07-22T07:47:56;29.80;1.00
30865;DHT22;17574;49.418;11.038;2022-07-22T07:50:23;29.50;1.00
30865;DHT22;17574;49.418;11.038;2022-07-22T07:52:50;29.30;1.00
30865;DHT22;17574;49.418;11.038;2022-07-22T07:55:19;29.20;1.00
30865;DHT22;17574;49.418;11.038;2022-07-22T07:57:47;28.90;1.00
30865;DHT22;17574;49.418;11.038;2022-07-22T08:00:17;28.60;1.00
30865;DHT22;17574;49.418;11.038;2022-07-22T08:02:44;28.40;1.00
30865;DHT22;17574;49.418;11.038;2022-07-22T08:05:12;28.60;1.00
30865;DHT22;17574;49.418;11.038;2022-07-22T08:07:39;28.50;1.00
30865;DHT22;17574;49.418;11.038;2022-07-22T08:10:06;28.60;1.00
30865;DHT22;17574;49.418;11.038;2022-07-22T08:12:53;28.60;1.00
30865;DHT22;17574;49.418;11.038;2022-07-22T08:15:22;28.40;1.00
30865;DHT22;17574;49.418;11.038;2022-07-22T08:17:51;28.20;1.00
30865;DHT22;17574;49.418;11.038;2022-07-22T08:20:19;28.70;1.00
30865;DHT22;17574;49.418;11.038;2022-07-22T08:22:48;28.90;1.00
30865;DHT22;17574;49.418;11.038;2022-07-22T08:25:15;29.10;1.00
30865;DHT22;17574;49.418;11.038;2022-07-22T08:27:41;28.90;1.00
30865;DHT22;17574;49.418;11.038;2022-07-22T08:30:08;28.90;1.00
30865;DHT22;17574;49.418;11.038;2022-07-22T08:32:35;29.20;1.00
30865;DHT22;17574;49.418;11.038;2022-07-22T08:35:03;29.50;1.00
30865;DHT22;17574;49.418;11.038;2022-07-22T08:37:30;29.70;1.00
30865;DHT22;17574;49.418;11.038;2022-07-22T08:39:57;29.80;1.00
30865;DHT22;17574;49.418;11.038;2022-07-22T08:42:25;29.80;1.00
30865;DHT22;17574;49.418;11.038;2022-07-22T08:44:52;29.60;1.00
30865;DHT22;17574;49.418;11.038;2022-07-22T08:47:22;29.40;1.00
30865;DHT22;17574;49.418;11.038;2022-07-22T08:50:07;29.60;1.00
30865;DHT22;17574;49.418;11.038;2022-07-22T08:52:34;30.00;1.00
30865;DHT22;17574;49.418;11.038;2022-07-22T08:55:05;29.90;1.00
30865;DHT22;17574;49.418;11.038;2022-07-22T08:57:31;30.10;1.00
30865;DHT22;17574;49.418;11.038;2022-07-22T08:59:59;30.30;1.00
30865;DHT22;17574;49.418;11.038;2022-07-22T09:02:26;30.10;1.00
30865;DHT22;17574;49.418;11.038;2022-07-22T09:04:58;30.30;1.00
30865;DHT22;17574;49.418;11.038;2022-07-22T09:07:45;30.60;1.00
30865;DHT22;17574;49.418;11.038;2022-07-22T09:10:16;30.50;1.00
30865;DHT22;17574;49.418;11.038;2022-07-22T09:12:57;30.50;1.00
30865;DHT22;17574;49.418;11.038;2022-07-22T09:15:26;30.60;1.00
30865;DHT22;17574;49.418;11.038;2022-07-22T09:17:54;30.70;1.00
30865;DHT22;17574;49.418;11.038;2022-07-22T09:20:29;30.80;1.00
30865;DHT22;17574;49.418;11.038;2022-07-22T09:22:56;30.70;1.00
30865;DHT22;17574;49.418;11.038;2022-07-22T09:25:27;30.50;1.00
30865;DHT22;17574;49.418;11.038;2022-07-22T09:28:17;30.70;1.00
30865;DHT22;17574;49.418;11.038;2022-07-22T09:30:50;30.70;1.00
30865;DHT22;17574;49.418;11.038;2022-07-22T09:33:20;30.50;1.00
30865;DHT22;17574;49.418;11.038;2022-07-22T09:35:47;30.70;1.00
30865;DHT22;17574;49.418;11.038;2022-07-22T09:38:16;30.60;1.00
30865;DHT22;17574;49.418;11.038;2022-07-22T09:40:47;30.90;1.00
30865;DHT22;17574;49.418;11.038;2022-07-22T09:43:15;31.30;1.00
30865;DHT22;17574;49.418;11.038;2022-07-22T09:45:50;31.40;1.00
30865;DHT22;17574;49.418;11.038;2022-07-22T09:48:18;31.30;1.00
30865;DHT22;17574;49.418;11.038;2022-07-22T09:50:46;31.10;1.00
30865;DHT22;17574;49.418;11.038;2022-07-22T09:53:13;31.10;1.00
30865;DHT22;17574;49.418;11.038;2022-07-22T09:55:40;31.00;1.00
30865;DHT22;17574;49.418;11.038;2022-07-22T09:58:07;31.10;1.00
30865;DHT22;17574;49.418;11.038;2022-07-22T10:00:38;31.20;1.00
30865;DHT22;17574;49.418;11.038;2022-07-22T10:03:06;31.20;1.00
30865;DHT22;17574;49.418;11.038;2022-07-22T10:05:34;31.30;1.00
30865;DHT22;17574;49.418;11.038;2022-07-22T10:08:02;31.40;1.00
30865;DHT22;17574;49.418;11.038;2022-07-22T10:10:32;31.20;1.00
30865;DHT22;17574;49.418;11.038;2022-07-22T10:12:59;31.60;1.00
30865;DHT22;17574;49.418;11.038;2022-07-22T10:15:27;32.00;1.00
30865;DHT22;17574;49.418;11.038;2022-07-22T10:18:05;32.30;1.00
30865;DHT22;17574;49.418;11.038;2022-07-22T10:21:01;32.50;1.00
30865;DHT22;17574;49.418;11.038;2022-07-22T10:23:27;32.80;1.00
30865;DHT22;17574;49.418;11.038;2022-07-22T10:28:22;32.10;1.00
30865;DHT22;17574;49.418;11.038;2022-07-22T10:30:49;32.50;1.00
30865;DHT22;17574;49.418;11.038;2022-07-22T10:33:16;32.80;1.00
30865;DHT22;17574;49.418;11.038;2022-07-22T10:38:11;33.10;1.00
30865;DHT22;17574;49.418;11.038;2022-07-22T10:40:47;33.50;1.00
30865;DHT22;17574;49.418;11.038;2022-07-22T10:43:14;33.50;1.00
30865;DHT22;17574;49.418;11.038;2022-07-22T10:46:14;33.50;1.00
30865;DHT22;17574;49.418;11.038;2022-07-22T10:51:05;33.40;1.00
30865;DHT22;17574;49.418;11.038;2022-07-22T10:53:45;33.60;1.00
30865;DHT22;17574;49.418;11.038;2022-07-22T10:56:14;33.60;1.00
30865;DHT22;17574;49.418;11.038;2022-07-22T10:58:48;33.50;1.00
30865;DHT22;17574;49.418;11.038;2022-07-22T11:01:19;33.80;1.00
30865;DHT22;17574;49.418;11.038;2022-07-22T11:03:47;34.00;1.00
30865;DHT22;17574;49.418;11.038;2022-07-22T11:06:15;33.70;1.00
30865;DHT22;17574;49.418;11.038;2022-07-22T11:08:42;34.00;1.00
30865;DHT22;17574;49.418;11.038;2022-07-22T11:12:18;34.10;1.00
30865;DHT22;17574;49.418;11.038;2022-07-22T11:15:53;34.40;1.00
30865;DHT22;17574;49.418;11.038;2022-07-22T11:18:19;34.60;1.00
30865;DHT22;17574;49.418;11.038;2022-07-22T11:20:46;34.60;1.00
30865;DHT22;17574;49.418;11.038;2022-07-22T11:23:15;34.50;1.00
30865;DHT22;17574;49.418;11.038;2022-07-22T11:25:46;34.30;1.00
30865;DHT22;17574;49.418;11.038;2022-07-22T11:28:13;34.60;1.00
30865;DHT22;17574;49.418;11.038;2022-07-22T11:30:39;34.50;1.00
30865;DHT22;17574;49.418;11.038;2022-07-22T11:33:06;34.80;1.00
30865;DHT22;17574;49.418;11.038;2022-07-22T11:35:34;34.90;1.00
30865;DHT22;17574;49.418;11.038;2022-07-22T11:38:00;34.50;1.00
30865;DHT22;17574;49.418;11.038;2022-07-22T11:40:31;34.70;1.00
30865;DHT22;17574;49.418;11.038;2022-07-22T11:43:02;34.70;1.00
30865;DHT22;17574;49.418;11.038;2022-07-22T11:45:28;34.80;1.00
30865;DHT22;17574;49.418;11.038;2022-07-22T11:47:55;34.80;1.00
30865;DHT22;17574;49.418;11.038;2022-07-22T11:50:31;35.00;1.00
30865;DHT22;17574;49.418;11.038;2022-07-22T11:52:57;35.30;1.00
30865;DHT22;17574;49.418;11.038;2022-07-22T11:55:27;34.90;1.00
30865;DHT22;17574;49.418;11.038;2022-07-22T11:57:54;34.90;1.00
30865;DHT22;17574;49.418;11.038;2022-07-22T12:00:21;34.90;1.00
30865;DHT22;17574;49.418;11.038;2022-07-22T12:02:48;35.20;1.00
30865;DHT22;17574;49.418;11.038;2022-07-22T12:05:14;35.50;1.00
30865;DHT22;17574;49.418;11.038;2022-07-22T12:07:57;35.20;1.00
30865;DHT22;17574;49.418;11.038;2022-07-22T12:10:24;35.50;1.00
30865;DHT22;17574;49.418;11.038;2022-07-22T12:12:51;34.90;1.00
30865;DHT22;17574;49.418;11.038;2022-07-22T12:15:17;35.20;1.00
30865;DHT22;17574;49.418;11.038;2022-07-22T12:18:14;35.40;1.00
30865;DHT22;17574;49.418;11.038;2022-07-22T12:20:47;35.50;1.00
30865;DHT22;17574;49.418;11.038;2022-07-22T12:23:22;35.60;1.00
30865;DHT22;17574;49.418;11.038;2022-07-22T12:25:50;35.70;1.00
30865;DHT22;17574;49.418;11.038;2022-07-22T12:28:17;35.70;1.00
30865;DHT22;17574;49.418;11.038;2022-07-22T12:30:43;35.90;1.00
30865;DHT22;17574;49.418;11.038;2022-07-22T12:33:14;35.80;1.00
30865;DHT22;17574;49.418;11.038;2022-07-22T12:35:42;35.50;1.00
30865;DHT22;17574;49.418;11.038;2022-07-22T12:38:09;35.10;1.00
30865;DHT22;17574;49.418;11.038;2022-07-22T12:40:36;35.00;1.00
30865;DHT22;17574;49.418;11.038;2022-07-22T12:43:07;35.30;1.00
30865;DHT22;17574;49.418;11.038;2022-07-22T12:45:35;35.40;1.00
30865;DHT22;17574;49.418;11.038;2022-07-22T12:50:34;35.70;1.00
30865;DHT22;17574;49.418;11.038;2022-07-22T12:53:02;35.90;1.00
30865;DHT22;17574;49.418;11.038;2022-07-22T12:55:51;35.90;1.00
30865;DHT22;17574;49.418;11.038;2022-07-22T12:58:28;35.90;1.00
30865;DHT22;17574;49.418;11.038;2022-07-22T13:00:57;36.00;1.00
30865;DHT22;17574;49.418;11.038;2022-07-22T13:03:24;36.10;1.00
30865;DHT22;17574;49.418;11.038;2022-07-22T13:05:55;36.00;1.00
30865;DHT22;17574;49.418;11.038;2022-07-22T13:08:22;36.00;1.00
30865;DHT22;17574;49.418;11.038;2022-07-22T13:10:50;36.30;1.00
30865;DHT22;17574;49.418;11.038;2022-07-22T13:13:17;36.40;1.00
30865;DHT22;17574;49.418;11.038;2022-07-22T13:15:44;36.40;1.00
30865;DHT22;17574;49.418;11.038;2022-07-22T13:18:11;36.60;1.00
30865;DHT22;17574;49.418;11.038;2022-07-22T13:20:37;36.60;1.00
30865;DHT22;17574;49.418;11.038;2022-07-22T13:23:04;36.50;1.00
30865;DHT22;17574;49.418;11.038;2022-07-22T13:25:31;36.10;1.00
30865;DHT22;17574;49.418;11.038;2022-07-22T13:27:59;35.90;1.00
30865;DHT22;17574;49.418;11.038;2022-07-22T13:30:25;36.00;1.00
30865;DHT22;17574;49.418;11.038;2022-07-22T13:32:52;36.20;1.00
30865;DHT22;17574;49.418;11.038;2022-07-22T13:35:19;36.30;1.00
30865;DHT22;17574;49.418;11.038;2022-07-22T13:37:46;36.20;1.00
30865;DHT22;17574;49.418;11.038;2022-07-22T13:40:13;36.30;1.00
30865;DHT22;17574;49.418;11.038;2022-07-22T13:42:39;36.20;1.00
30865;DHT22;17574;49.418;11.038;2022-07-22T13:45:06;36.40;1.00
30865;DHT22;17574;49.418;11.038;2022-07-22T13:47:35;36.10;1.00
30865;DHT22;17574;49.418;11.038;2022-07-22T13:50:02;36.10;1.00
30865;DHT22;17574;49.418;11.038;2022-07-22T13:52:29;36.10;1.00
30865;DHT22;17574;49.418;11.038;2022-07-22T13:54:55;36.20;1.00
30865;DHT22;17574;49.418;11.038;2022-07-22T13:57:22;36.30;1.00
30865;DHT22;17574;49.418;11.038;2022-07-22T13:59:49;36.40;1.00
30865;DHT22;17574;49.418;11.038;2022-07-22T14:02:15;36.30;1.00
30865;DHT22;17574;49.418;11.038;2022-07-22T14:04:42;36.40;1.00
30865;DHT22;17574;49.418;11.038;2022-07-22T14:07:09;36.70;1.00
30865;DHT22;17574;49.418;11.038;2022-07-22T14:09:38;36.70;1.00
30865;DHT22;17574;49.418;11.038;2022-07-22T14:12:05;36.70;1.00
30865;DHT22;17574;49.418;11.038;2022-07-22T14:14:32;36.70;1.00
30865;DHT22;17574;49.418;11.038;2022-07-22T14:16:58;36.70;1.00
30865;DHT22;17574;49.418;11.038;2022-07-22T14:19:26;36.80;1.00
30865;DHT22;17574;49.418;11.038;2022-07-22T14:21:55;36.40;1.00
30865;DHT22;17574;49.418;11.038;2022-07-22T14:24:21;36.60;1.00
30865;DHT22;17574;49.418;11.038;2022-07-22T14:26:49;36.50;1.00
30865;DHT22;17574;49.418;11.038;2022-07-22T14:29:16;36.50;1.00
30865;DHT22;17574;49.418;11.038;2022-07-22T14:31:42;36.50;1.00
30865;DHT22;17574;49.418;11.038;2022-07-22T14:34:09;36.30;1.00
30865;DHT22;17574;49.418;11.038;2022-07-22T14:36:36;35.70;1.00
30865;DHT22;17574;49.418;11.038;2022-07-22T14:39:03;36.00;1.00
30865;DHT22;17574;49.418;11.038;2022-07-22T14:41:29;36.20;1.00
30865;DHT22;17574;49.418;11.038;2022-07-22T14:43:56;36.20;1.00
30865;DHT22;17574;49.418;11.038;2022-07-22T14:46:23;36.00;1.00
30865;DHT22;17574;49.418;11.038;2022-07-22T14:48:50;35.80;1.00
30865;DHT22;17574;49.418;11.038;2022-07-22T14:51:20;35.80;1.00
30865;DHT22;17574;49.418;11.038;2022-07-22T14:53:47;35.60;1.00
30865;DHT22;17574;49.418;11.038;2022-07-22T14:56:14;35.80;1.00
30865;DHT22;17574;49.418;11.038;2022-07-22T14:58:40;36.00;1.00
30865;DHT22;17574;49.418;11.038;2022-07-22T15:01:07;35.90;1.00
30865;DHT22;17574;49.418;11.038;2022-07-22T15:03:34;35.80;1.00
30865;DHT22;17574;49.418;11.038;2022-07-22T15:06:00;35.90;1.00
30865;DHT22;17574;49.418;11.038;2022-07-22T15:08:27;36.20;1.00
30865;DHT22;17574;49.418;11.038;2022-07-22T15:10:53;36.30;1.00
30865;DHT22;17574;49.418;11.038;2022-07-22T15:13:20;36.30;1.00
30865;DHT22;17574;49.418;11.038;2022-07-22T15:15:52;36.40;1.00
30865;DHT22;17574;49.418;11.038;2022-07-22T15:18:19;36.20;1.00
30865;DHT22;17574;49.418;11.038;2022-07-22T15:20:46;36.00;1.00
30865;DHT22;17574;49.418;11.038;2022-07-22T15:23:12;35.70;1.00
30865;DHT22;17574;49.418;11.038;2022-07-22T15:25:40;35.50;1.00
30865;DHT22;17574;49.418;11.038;2022-07-22T15:28:06;35.30;1.00
30865;DHT22;17574;49.418;11.038;2022-07-22T15:30:54;35.20;1.00
30865;DHT22;17574;49.418;11.038;2022-07-22T15:33:22;35.30;1.00
30865;DHT22;17574;49.418;11.038;2022-07-22T15:36:01;35.10;1.00
30865;DHT22;17574;49.418;11.038;2022-07-22T15:38:28;35.10;1.00
30865;DHT22;17574;49.418;11.038;2022-07-22T15:40:55;35.10;1.00
30865;DHT22;17574;49.418;11.038;2022-07-22T15:43:22;34.90;1.00
30865;DHT22;17574;49.418;11.038;2022-07-22T15:45:49;34.90;1.00